»·PEaware :: AFL103 KJFK-UUEE

AFL103 :: KJFK-UUEE

FLIGHT INFORMATION

Flight Status: Arrived
Operator:
Aeroflot
More flights by this operator :: More flights under this callsign
Pilot: Anonymous 35349 (35349)
Aircraft: BOEING 747-400 (WINGLETS)
(B744)
More flights by this aircraft type
Origin: KJFK Kennedy Intl
United States
Destination: UUEE Sheremetyevo
Russian Federation
More flights between these airports :: More routes between these airports
Route: MERIT HFD PUT TOPPS AVUTI 6000N/05000W 6300N/04000W 6400N/03000W 6400N/02000W 6400N/01000W ISVIG SUVAR NIRPU INLOG T73 NAMIN NAMIN1F
File this flight plan on PilotEdge
Remarks:
Altitude:
(Current/Filed)
31,000ft
Speed:
(Current/Filed)
330kts
Departed: 29-Jun-21 05:21 AM
Arrived: 29-Jun-21 02:30 PM
Distance/Time
Traveled:
4035nm/9:09
Distance/Time
To Go:
Arrived

Flight Plot

Page will automatically refresh every two minutes.

Flight plan parsing failed; only flown route is shown


Map Options




Map Legend


Flown Route
Filed Route
Departure Airport
Arrival Airport
Navaid (VOR, NDB)
Fix

Horizontal Profiles

Position Reports

Time Latitude Longitude Heading Altitude Ground
Speed
29-Jun-21 05:16 40.625998 -73.769899 30 27ft 0kts
29-Jun-21 05:17 40.626002 -73.769895 30 27ft 0kts
29-Jun-21 05:18 40.626006 -73.769892 30 27ft 0kts
29-Jun-21 05:19 40.626010 -73.769889 30 27ft 0kts
29-Jun-21 05:20 40.652652 -73.749073 30 320ft 215kts
29-Jun-21 05:21 40.727717 -73.694280 29 1977ft 342kts
29-Jun-21 05:22 40.796699 -73.641681 30 3663ft 254kts
29-Jun-21 05:23 40.857621 -73.591853 32 5470ft 263kts
29-Jun-21 05:24 40.919762 -73.538947 33 7270ft 270kts
29-Jun-21 05:25 40.983425 -73.484131 33 9072ft 276kts
29-Jun-21 05:26 41.050176 -73.426445 33 9996ft 295kts
29-Jun-21 05:27 41.117788 -73.367863 33 10001ft 286kts
29-Jun-21 05:28 41.184403 -73.309990 33 10002ft 286kts
29-Jun-21 05:29 41.250999 -73.251988 33 10002ft 286kts
29-Jun-21 05:30 41.317894 -73.193573 33 10747ft 312kts
29-Jun-21 05:31 41.393839 -73.106270 51 11814ft 381kts
29-Jun-21 05:32 41.450197 -72.989531 59 12813ft 378kts
29-Jun-21 05:33 41.503155 -72.865829 60 13819ft 386kts
29-Jun-21 05:34 41.556883 -72.741126 59 14818ft 391kts
29-Jun-21 05:35 41.612033 -72.614342 59 15821ft 397kts
29-Jun-21 05:36 41.668766 -72.486413 59 16823ft 403kts
29-Jun-21 05:37 41.726994 -72.357090 58 17799ft 410kts
29-Jun-21 05:38 41.786656 -72.224227 59 18002ft 418kts
29-Jun-21 05:39 41.846081 -72.091154 59 18002ft 414kts
29-Jun-21 05:40 41.905003 -71.958483 59 18002ft 414kts
29-Jun-21 05:41 41.969834 -71.831406 46 18005ft 414kts
29-Jun-21 05:42 42.055432 -71.727151 39 18003ft 414kts
29-Jun-21 05:43 42.144233 -71.628481 39 18002ft 414kts
29-Jun-21 05:44 42.233172 -71.529276 39 18126ft 411kts
29-Jun-21 05:45 42.320263 -71.430972 40 19114ft 415kts
29-Jun-21 05:46 42.409797 -71.329030 40 20119ft 423kts
29-Jun-21 05:47 42.500083 -71.225602 40 21120ft 429kts
29-Jun-21 05:48 42.591825 -71.119991 40 22122ft 435kts
29-Jun-21 05:49 42.684788 -71.012505 40 23124ft 442kts
29-Jun-21 05:50 42.778924 -70.903200 40 24125ft 449kts
29-Jun-21 05:51 42.874801 -70.791403 40 24958ft 459kts
29-Jun-21 05:52 42.972646 -70.676823 40 25002ft 462kts
29-Jun-21 05:53 43.069671 -70.562700 40 25002ft 459kts
29-Jun-21 05:54 43.166194 -70.448662 40 25003ft 459kts
29-Jun-21 05:55 43.262615 -70.334243 40 25002ft 459kts
29-Jun-21 05:56 43.359232 -70.219093 41 25002ft 459kts
29-Jun-21 05:57 43.455348 -70.104034 41 25002ft 459kts
29-Jun-21 05:58 43.551592 -69.988316 41 25002ft 459kts
29-Jun-21 05:59 43.647872 -69.872040 41 25002ft 459kts
29-Jun-21 06:00 43.743629 -69.755886 41 25002ft 459kts
29-Jun-21 06:01 43.839684 -69.638850 41 25002ft 459kts
29-Jun-21 06:02 43.935415 -69.521688 41 25002ft 459kts
29-Jun-21 06:03 44.031037 -69.404136 41 25002ft 459kts
29-Jun-21 06:04 44.126617 -69.286103 41 25002ft 459kts
29-Jun-21 06:05 44.221873 -69.167941 41 25002ft 459kts
29-Jun-21 06:06 44.317061 -69.049325 41 25002ft 459kts
29-Jun-21 06:07 44.412107 -68.930348 41 25002ft 459kts
29-Jun-21 06:08 44.507187 -68.810781 42 25002ft 459kts
29-Jun-21 06:09 44.602221 -68.690723 42 25002ft 459kts
29-Jun-21 06:10 44.696648 -68.570881 42 25002ft 459kts
29-Jun-21 06:11 44.791355 -68.450127 42 25002ft 459kts
29-Jun-21 06:12 44.886055 -68.328819 42 25002ft 459kts
29-Jun-21 06:13 44.980326 -68.207488 42 25002ft 459kts
29-Jun-21 06:14 45.074375 -68.085871 42 25002ft 459kts
29-Jun-21 06:15 45.168638 -67.963382 42 25002ft 459kts
29-Jun-21 06:16 45.262414 -67.840909 42 25002ft 459kts
29-Jun-21 06:17 45.361490 -67.726909 30 25004ft 459kts
29-Jun-21 06:18 45.477085 -67.649420 22 25003ft 460kts
29-Jun-21 06:19 45.595389 -67.580116 22 25002ft 459kts
29-Jun-21 06:20 45.713428 -67.510707 22 25002ft 459kts
29-Jun-21 06:21 45.831178 -67.440172 22 25002ft 459kts
29-Jun-21 06:22 45.949007 -67.368590 23 25002ft 459kts
29-Jun-21 06:23 46.066379 -67.296601 23 25002ft 459kts
29-Jun-21 06:24 46.183831 -67.224051 23 25002ft 459kts
29-Jun-21 06:25 46.301257 -67.151097 23 25002ft 459kts
29-Jun-21 06:26 46.418431 -67.077916 23 25002ft 459kts
29-Jun-21 06:27 46.535416 -67.004494 23 25002ft 459kts
29-Jun-21 06:28 46.652866 -66.930422 23 25002ft 459kts
29-Jun-21 06:29 46.770081 -66.856143 23 25002ft 459kts
29-Jun-21 06:30 46.886823 -66.781811 23 25002ft 459kts
29-Jun-21 06:31 47.004115 -66.706769 23 25002ft 459kts
29-Jun-21 06:33 47.121198 -66.631500 23 25002ft 459kts
29-Jun-21 06:34 47.237901 -66.556111 23 25002ft 459kts
29-Jun-21 06:35 47.354745 -66.480267 23 25002ft 459kts
29-Jun-21 06:36 47.471760 -66.403940 23 25002ft 459kts
29-Jun-21 06:37 47.588612 -66.327348 23 25002ft 459kts
29-Jun-21 06:38 47.705405 -66.250415 23 25002ft 459kts
29-Jun-21 06:39 47.822004 -66.173234 24 25002ft 459kts
29-Jun-21 06:40 47.938598 -66.095675 24 25002ft 459kts
29-Jun-21 06:41 48.055279 -66.017671 24 25002ft 459kts
29-Jun-21 06:42 48.171594 -65.939524 24 25002ft 459kts
29-Jun-21 06:43 48.288249 -65.860755 24 25002ft 459kts
29-Jun-21 06:44 48.404503 -65.781862 24 25002ft 459kts
29-Jun-21 06:45 48.520838 -65.702513 24 25002ft 459kts
29-Jun-21 06:46 48.637096 -65.622817 24 25002ft 459kts
29-Jun-21 06:47 48.753482 -65.542623 24 25002ft 459kts
29-Jun-21 06:48 48.869653 -65.462170 24 25002ft 459kts
29-Jun-21 06:49 48.985843 -65.381291 24 25002ft 459kts
29-Jun-21 06:50 49.101792 -65.300162 24 25002ft 459kts
29-Jun-21 06:51 49.217782 -65.218584 24 25002ft 459kts
29-Jun-21 06:52 49.333751 -65.136595 24 25002ft 459kts
29-Jun-21 06:53 49.449621 -65.054249 24 25002ft 459kts
29-Jun-21 06:54 49.565735 -64.971295 24 25002ft 459kts
29-Jun-21 06:55 49.681265 -64.888324 25 25002ft 459kts
29-Jun-21 06:55 49.777812 -64.818651 25 25002ft 459kts
29-Jun-21 06:56 49.893565 -64.734710 25 25002ft 459kts
29-Jun-21 06:58 50.028572 -64.636241 25 25002ft 459kts
29-Jun-21 06:59 50.143710 -64.551776 25 25002ft 459kts
29-Jun-21 07:00 50.259294 -64.466529 25 25002ft 459kts
29-Jun-21 07:01 50.374974 -64.380748 25 25002ft 459kts
29-Jun-21 07:01 50.471027 -64.309167 25 25002ft 459kts
29-Jun-21 07:02 50.586361 -64.222788 25 25002ft 459kts
29-Jun-21 07:03 50.701489 -64.136093 25 25002ft 459kts
29-Jun-21 07:05 50.835858 -64.034307 25 25002ft 459kts
29-Jun-21 07:06 50.950948 -63.946604 25 25002ft 459kts
29-Jun-21 07:06 51.046718 -63.873255 25 25002ft 459kts
29-Jun-21 07:07 51.162043 -63.784476 25 25002ft 459kts
29-Jun-21 07:08 51.276830 -63.695618 25 25002ft 459kts
29-Jun-21 07:09 51.391538 -63.606323 26 25002ft 459kts
29-Jun-21 07:10 51.506486 -63.516338 26 25002ft 459kts
29-Jun-21 07:11 51.621175 -63.426046 26 25002ft 459kts
29-Jun-21 07:12 51.735946 -63.335178 26 25002ft 459kts
29-Jun-21 07:13 51.850460 -63.243997 26 25002ft 459kts
29-Jun-21 07:14 51.964942 -63.152319 26 25002ft 459kts
29-Jun-21 07:15 52.079430 -63.060111 26 25002ft 459kts
29-Jun-21 07:16 52.193544 -62.967671 26 25002ft 459kts
29-Jun-21 07:17 52.308089 -62.874346 26 25002ft 459kts
29-Jun-21 07:18 52.422352 -62.780706 26 25002ft 459kts
29-Jun-21 07:19 52.536272 -62.686802 26 25002ft 459kts
29-Jun-21 07:20 52.650492 -62.592098 26 25002ft 459kts
29-Jun-21 07:21 52.764544 -62.496976 26 25002ft 459kts
29-Jun-21 07:22 52.878318 -62.401524 26 25002ft 459kts
29-Jun-21 07:23 52.991923 -62.305647 27 25002ft 459kts
29-Jun-21 07:24 53.105831 -62.208942 27 25002ft 459kts
29-Jun-21 07:25 53.219628 -62.111749 27 25002ft 459kts
29-Jun-21 07:26 53.332991 -62.014346 27 25002ft 459kts
29-Jun-21 07:27 53.446558 -61.916177 27 25002ft 459kts
29-Jun-21 07:28 53.560173 -61.817370 27 25002ft 459kts
29-Jun-21 07:29 53.673492 -61.718218 27 25002ft 459kts
29-Jun-21 07:30 53.782044 -61.622668 27 25002ft 459kts
29-Jun-21 07:31 53.900022 -61.518181 27 25002ft 459kts
29-Jun-21 07:32 54.013192 -61.417321 27 25002ft 459kts
29-Jun-21 07:33 54.126139 -61.316036 27 25002ft 459kts
29-Jun-21 07:34 54.238812 -61.214366 27 25002ft 459kts
29-Jun-21 07:35 54.351720 -61.111850 28 25002ft 459kts
29-Jun-21 07:36 54.464459 -61.008842 28 25002ft 459kts
29-Jun-21 07:37 54.577183 -60.905199 28 25002ft 459kts
29-Jun-21 07:38 54.689647 -60.801137 28 25002ft 459kts
29-Jun-21 07:39 54.802382 -60.696161 28 25002ft 459kts
29-Jun-21 07:40 54.914746 -60.590862 28 25002ft 459kts
29-Jun-21 07:41 55.026870 -60.485114 28 25002ft 459kts
29-Jun-21 07:42 55.139344 -60.378351 28 25002ft 459kts
29-Jun-21 07:43 55.251425 -60.271270 28 25002ft 459kts
29-Jun-21 07:44 55.363333 -60.163663 28 25002ft 459kts
29-Jun-21 07:45 55.475422 -60.055175 28 25002ft 459kts
29-Jun-21 07:46 55.587222 -59.946257 28 25002ft 459kts
29-Jun-21 07:47 55.698748 -59.836889 29 25002ft 459kts
29-Jun-21 07:48 55.810338 -59.726736 29 25002ft 459kts
29-Jun-21 07:49 55.922099 -59.615682 29 25002ft 459kts
29-Jun-21 07:50 56.033602 -59.504142 29 25002ft 459kts
29-Jun-21 07:51 56.144882 -59.392079 29 25002ft 459kts
29-Jun-21 07:52 56.256074 -59.279348 29 25002ft 459kts
29-Jun-21 07:53 56.367075 -59.166053 29 25002ft 459kts
29-Jun-21 07:54 56.478237 -59.051820 29 25002ft 459kts
29-Jun-21 07:55 56.589289 -58.936919 29 25002ft 459kts
29-Jun-21 07:56 56.700071 -58.821509 29 25002ft 459kts
29-Jun-21 07:57 56.810550 -58.705620 29 25002ft 459kts
29-Jun-21 07:58 56.921376 -58.588561 30 25002ft 459kts
29-Jun-21 07:59 57.031781 -58.471129 30 25002ft 459kts
29-Jun-21 08:00 57.141921 -58.353153 30 25002ft 459kts
29-Jun-21 08:01 57.252112 -58.234275 30 25002ft 459kts
29-Jun-21 08:02 57.362295 -58.114528 30 25002ft 459kts
29-Jun-21 08:03 57.468827 -57.985253 43 25002ft 459kts
29-Jun-21 08:04 57.548914 -57.800008 55 25003ft 460kts
29-Jun-21 08:05 57.619857 -57.601987 56 25002ft 459kts
29-Jun-21 08:06 57.690093 -57.403081 56 25002ft 459kts
29-Jun-21 08:07 57.760929 -57.203741 56 25002ft 459kts
29-Jun-21 08:08 57.831671 -57.005062 56 25002ft 459kts
29-Jun-21 08:09 57.902479 -56.805607 56 25002ft 459kts
29-Jun-21 08:10 57.973313 -56.604911 56 25002ft 459kts
29-Jun-21 08:11 58.043499 -56.404599 56 25002ft 459kts
29-Jun-21 08:12 58.113673 -56.202723 56 25002ft 459kts
29-Jun-21 08:13 58.183525 -56.000101 56 25002ft 459kts
29-Jun-21 08:14 58.253069 -55.796658 57 25002ft 459kts
29-Jun-21 08:15 58.322112 -55.592947 57 25002ft 459kts
29-Jun-21 08:16 58.390988 -55.387976 57 25002ft 459kts
29-Jun-21 08:17 58.459496 -55.182323 57 25002ft 459kts
29-Jun-21 08:18 58.527611 -54.976057 57 25002ft 459kts
29-Jun-21 08:19 58.595326 -54.769203 58 25002ft 459kts
29-Jun-21 08:20 58.662908 -54.560925 58 25002ft 459kts
29-Jun-21 08:21 58.730030 -54.352222 58 25002ft 459kts
29-Jun-21 08:22 58.796803 -54.142749 58 25002ft 459kts
29-Jun-21 08:23 58.863293 -53.932286 58 25002ft 459kts
29-Jun-21 08:24 58.929336 -53.721343 58 25002ft 459kts
29-Jun-21 08:25 58.995192 -53.509083 59 25002ft 459kts
29-Jun-21 08:26 59.060698 -53.296020 59 25002ft 459kts
29-Jun-21 08:27 59.125666 -53.082756 59 25002ft 459kts
29-Jun-21 08:28 59.190527 -52.867871 59 25002ft 459kts
29-Jun-21 08:29 59.254871 -52.652713 59 25002ft 459kts
29-Jun-21 08:30 59.318927 -52.436506 60 25002ft 459kts
29-Jun-21 08:31 59.382450 -52.220078 60 25002ft 459kts
29-Jun-21 08:32 59.445742 -52.002389 60 25002ft 459kts
29-Jun-21 08:33 59.508683 -51.783839 60 25002ft 459kts
29-Jun-21 08:34 59.571392 -51.563995 60 25002ft 459kts
29-Jun-21 08:35 59.633687 -51.343485 60 25002ft 459kts
29-Jun-21 08:36 59.695462 -51.122673 61 25002ft 459kts
29-Jun-21 08:37 59.756905 -50.900887 61 25002ft 459kts
29-Jun-21 08:38 59.817895 -50.678539 61 25002ft 459kts
29-Jun-21 08:39 59.878668 -50.454734 61 25002ft 459kts
29-Jun-21 08:40 59.938863 -50.230727 61 25002ft 459kts
29-Jun-21 08:41 60.000076 -50.006940 58 25002ft 459kts
29-Jun-21 08:42 60.072749 -49.796947 53 25003ft 459kts
29-Jun-21 08:43 60.148667 -49.590888 53 25002ft 459kts
29-Jun-21 08:44 60.224341 -49.384308 53 25002ft 459kts
29-Jun-21 08:45 60.299460 -49.176363 54 25002ft 459kts
29-Jun-21 08:46 60.374244 -48.966706 54 25002ft 459kts
29-Jun-21 08:47 60.448284 -48.756847 54 25002ft 459kts
29-Jun-21 08:48 60.522033 -48.545716 54 25002ft 459kts
29-Jun-21 08:49 60.595644 -48.332963 55 25002ft 459kts
29-Jun-21 08:50 60.668809 -48.119509 55 25002ft 459kts
29-Jun-21 08:51 60.741446 -47.905619 55 25002ft 459kts
29-Jun-21 08:52 60.813861 -47.690396 55 25002ft 459kts
29-Jun-21 08:53 60.885909 -47.474260 55 25002ft 459kts
29-Jun-21 08:54 60.957609 -47.257146 55 25002ft 459kts
29-Jun-21 08:55 61.029142 -47.038489 56 25002ft 459kts
29-Jun-21 08:56 61.100139 -46.819405 56 25002ft 459kts
29-Jun-21 08:57 61.170662 -46.599706 56 25002ft 459kts
29-Jun-21 08:58 61.241122 -46.378093 56 25002ft 459kts
29-Jun-21 08:59 61.310919 -46.156447 56 25002ft 459kts
29-Jun-21 09:00 61.380603 -45.933010 57 25002ft 459kts
29-Jun-21 09:01 61.449783 -45.709016 57 25002ft 459kts
29-Jun-21 09:02 61.518712 -45.483640 57 25002ft 459kts
29-Jun-21 09:03 61.587216 -45.257436 57 25002ft 459kts
29-Jun-21 09:04 61.655106 -45.031034 57 25002ft 459kts
29-Jun-21 09:05 61.722911 -44.802651 58 25002ft 459kts
29-Jun-21 09:06 61.790288 -44.573424 58 25002ft 459kts
29-Jun-21 09:07 61.857133 -44.343701 58 25002ft 459kts
29-Jun-21 09:08 61.923837 -44.112129 58 25002ft 459kts
29-Jun-21 09:09 61.989825 -43.880694 58 25002ft 459kts
29-Jun-21 09:10 62.055636 -43.647498 59 25002ft 459kts
29-Jun-21 09:11 62.121118 -43.413054 59 25002ft 459kts
29-Jun-21 09:12 62.186046 -43.178165 59 25002ft 459kts
29-Jun-21 09:13 62.250771 -42.941547 59 25002ft 459kts
29-Jun-21 09:14 62.314931 -42.704502 59 25002ft 459kts
29-Jun-21 09:15 62.378576 -42.466855 60 25002ft 459kts
29-Jun-21 09:16 62.441890 -42.227911 60 25002ft 459kts
29-Jun-21 09:18 62.504980 -41.987236 60 25002ft 459kts
29-Jun-21 09:19 62.567497 -41.746144 60 25002ft 459kts
29-Jun-21 09:20 62.629690 -41.503666 61 25002ft 459kts
29-Jun-21 09:21 62.691219 -41.261121 61 25002ft 459kts
29-Jun-21 09:22 62.752582 -41.016530 61 25002ft 459kts
29-Jun-21 09:23 62.813449 -40.771171 61 25002ft 459kts
29-Jun-21 09:24 62.873833 -40.524950 61 25002ft 459kts
29-Jun-21 09:25 62.933626 -40.278255 62 25002ft 459kts
29-Jun-21 09:26 62.992198 -40.028722 65 25002ft 459kts
29-Jun-21 09:27 63.035329 -39.763789 72 25003ft 459kts
29-Jun-21 09:28 63.071866 -39.494044 73 25002ft 459kts
29-Jun-21 09:29 63.107362 -39.223370 73 25002ft 459kts
29-Jun-21 09:30 63.142643 -38.951994 74 25002ft 459kts
29-Jun-21 09:31 63.177612 -38.680318 74 25002ft 459kts
29-Jun-21 09:32 63.212212 -38.407883 74 25002ft 459kts
29-Jun-21 09:33 63.246362 -38.134739 74 25002ft 459kts
29-Jun-21 09:34 63.279982 -37.861241 74 25002ft 459kts
29-Jun-21 09:35 63.313080 -37.587173 75 25002ft 459kts
29-Jun-21 09:36 63.345683 -37.312263 75 25002ft 459kts
29-Jun-21 09:37 63.377711 -37.037140 75 25002ft 459kts
29-Jun-21 09:38 63.409209 -36.761403 75 25002ft 459kts
29-Jun-21 09:39 63.440298 -36.483974 76 25002ft 459kts
29-Jun-21 09:40 63.470700 -36.207302 76 25002ft 459kts
29-Jun-21 09:41 63.500638 -35.929382 76 25002ft 459kts
29-Jun-21 09:41 63.525136 -35.697703 76 25002ft 459kts
29-Jun-21 09:43 63.558852 -35.372218 77 25002ft 459kts
29-Jun-21 09:44 63.587186 -35.092393 77 25002ft 459kts
29-Jun-21 09:44 63.610324 -34.859356 77 25002ft 459kts
29-Jun-21 09:45 63.637599 -34.579137 77 25002ft 459kts
29-Jun-21 09:46 63.664349 -34.298149 78 25002ft 459kts
29-Jun-21 09:48 63.694857 -33.969742 78 25002ft 459kts
29-Jun-21 09:48 63.716264 -33.733895 78 25002ft 459kts
29-Jun-21 09:49 63.741376 -33.451185 78 25002ft 459kts
29-Jun-21 09:51 63.769944 -33.121046 79 25002ft 459kts
29-Jun-21 09:51 63.789876 -32.884955 79 25002ft 459kts
29-Jun-21 09:52 63.813318 -32.600766 79 25002ft 459kts
29-Jun-21 09:53 63.836202 -32.316097 79 25002ft 459kts
29-Jun-21 09:54 63.858468 -32.031683 80 25002ft 459kts
29-Jun-21 09:55 63.880221 -31.746163 80 25002ft 459kts
29-Jun-21 09:56 63.901376 -31.460673 80 25002ft 459kts
29-Jun-21 09:57 63.922052 -31.173492 80 25002ft 459kts
29-Jun-21 09:58 63.942081 -30.886925 81 25002ft 459kts
29-Jun-21 09:59 63.961517 -30.600145 81 25002ft 459kts
29-Jun-21 10:00 63.980391 -30.312496 81 25002ft 459kts
29-Jun-21 10:01 63.998171 -30.024316 83 25003ft 459kts
29-Jun-21 10:02 64.009927 -29.734353 85 25002ft 459kts
29-Jun-21 10:03 64.019078 -29.444511 86 25002ft 459kts
29-Jun-21 10:04 64.027465 -29.153970 86 25002ft 459kts
29-Jun-21 10:05 64.035343 -28.863315 86 25002ft 459kts
29-Jun-21 10:07 64.046198 -28.426687 86 25002ft 459kts
29-Jun-21 10:08 64.055804 -27.989713 87 25002ft 459kts
29-Jun-21 10:09 64.061488 -27.698470 87 25002ft 459kts
29-Jun-21 10:10 64.066597 -27.406722 87 25002ft 459kts
29-Jun-21 10:11 64.071123 -27.114802 88 25002ft 459kts
29-Jun-21 10:12 64.075055 -26.823765 88 25002ft 459kts
29-Jun-21 10:13 64.078407 -26.532411 88 25002ft 459kts
29-Jun-21 10:14 64.081188 -26.239784 88 25002ft 459kts
29-Jun-21 10:15 64.083371 -25.948583 89 25002ft 459kts
29-Jun-21 10:16 64.084976 -25.656770 89 25002ft 459kts
29-Jun-21 10:17 64.085995 -25.364277 89 25002ft 459kts
29-Jun-21 10:18 64.086429 -25.072967 89 25002ft 459kts
29-Jun-21 10:19 64.086278 -24.781175 90 25002ft 459kts
29-Jun-21 10:20 64.085539 -24.488387 90 25002ft 459kts
29-Jun-21 10:21 64.084221 -24.197138 90 25002ft 459kts
29-Jun-21 10:22 64.082317 -23.905543 90 25002ft 459kts
29-Jun-21 10:23 64.079827 -23.613522 91 25002ft 459kts
29-Jun-21 10:24 64.076754 -23.321940 91 25002ft 459kts
29-Jun-21 10:25 64.073096 -23.030247 91 25002ft 459kts
29-Jun-21 10:26 64.068839 -22.737834 92 25002ft 459kts
29-Jun-21 10:27 64.064018 -22.446801 92 25002ft 459kts
29-Jun-21 10:28 64.058605 -22.155454 92 25002ft 459kts
29-Jun-21 10:29 64.052600 -21.863887 92 25002ft 459kts
29-Jun-21 10:30 64.046020 -21.572790 93 25002ft 459kts
29-Jun-21 10:31 64.038855 -21.281918 93 25002ft 459kts
29-Jun-21 10:32 64.031106 -20.991227 93 25002ft 459kts
29-Jun-21 10:33 64.022766 -20.700654 93 25002ft 459kts
29-Jun-21 10:34 64.013816 -20.409853 94 25002ft 459kts
29-Jun-21 10:35 64.004263 -20.120022 94 25002ft 459kts
29-Jun-21 10:36 64.004629 -19.828862 86 25003ft 459kts
29-Jun-21 10:37 64.013776 -19.538069 85 25002ft 459kts
29-Jun-21 10:38 64.023374 -19.248010 85 25002ft 459kts
29-Jun-21 10:39 64.032163 -18.956961 86 25002ft 459kts
29-Jun-21 10:40 64.040066 -18.666667 86 25002ft 459kts
29-Jun-21 10:41 64.047253 -18.375457 86 25002ft 459kts
29-Jun-21 10:42 64.053773 -18.084401 87 25002ft 459kts
29-Jun-21 10:43 64.059689 -17.792621 87 25002ft 459kts
29-Jun-21 10:44 64.065003 -17.500810 87 25002ft 459kts
29-Jun-21 10:45 64.069709 -17.210093 88 25002ft 459kts
29-Jun-21 10:46 64.073851 -16.917578 88 25002ft 459kts
29-Jun-21 10:47 64.077386 -16.626714 88 25002ft 459kts
29-Jun-21 10:48 64.080354 -16.334293 88 25002ft 459kts
29-Jun-21 10:49 64.082728 -16.042815 89 25002ft 459kts
29-Jun-21 10:50 64.084521 -15.751078 89 25002ft 459kts
29-Jun-21 10:51 64.085730 -15.458816 89 25002ft 459kts
29-Jun-21 10:52 64.086354 -15.167199 89 25002ft 459kts
29-Jun-21 10:53 64.086392 -14.875174 90 25002ft 459kts
29-Jun-21 10:54 64.085846 -14.583290 90 25002ft 459kts
29-Jun-21 10:55 64.084711 -14.290965 90 25002ft 459kts
29-Jun-21 10:56 64.082995 -13.999469 90 25002ft 459kts
29-Jun-21 10:57 64.080694 -13.707670 91 25002ft 459kts
29-Jun-21 10:58 64.077803 -13.415460 91 25002ft 459kts
29-Jun-21 10:59 64.074335 -13.123955 91 25002ft 459kts
29-Jun-21 11:00 64.070281 -12.832428 91 25002ft 459kts
29-Jun-21 11:01 64.065638 -12.540708 92 25002ft 459kts
29-Jun-21 11:02 64.060409 -12.249016 92 25002ft 459kts
29-Jun-21 11:03 64.054606 -11.957995 92 25002ft 459kts
29-Jun-21 11:04 64.048211 -11.666792 93 25002ft 459kts
29-Jun-21 11:05 64.041233 -11.375839 93 25002ft 459kts
29-Jun-21 11:06 64.033657 -11.084491 93 25002ft 459kts
29-Jun-21 11:07 64.025517 -10.794248 93 25002ft 459kts
29-Jun-21 11:08 64.016764 -10.503455 94 25002ft 459kts
29-Jun-21 11:09 64.007389 -10.212606 94 25002ft 459kts
29-Jun-21 11:10 63.995328 -9.923392 97 25003ft 459kts
29-Jun-21 11:11 63.977662 -9.634776 98 25002ft 459kts
29-Jun-21 11:12 63.958438 -9.346909 98 25002ft 459kts
29-Jun-21 11:13 63.938661 -9.060186 99 25002ft 459kts
29-Jun-21 11:14 63.918360 -8.773339 99 25002ft 459kts
29-Jun-21 11:15 63.897587 -8.487405 99 25002ft 459kts
29-Jun-21 11:16 63.876262 -8.201664 99 25002ft 459kts
29-Jun-21 11:17 63.854341 -7.915739 99 25002ft 459kts
29-Jun-21 11:18 63.831903 -7.630784 100 25002ft 459kts
29-Jun-21 11:19 63.808926 -7.346502 100 25002ft 459kts
29-Jun-21 11:20 63.785377 -7.062527 100 25002ft 459kts
29-Jun-21 11:21 63.761217 -6.778378 101 25002ft 459kts
29-Jun-21 11:22 63.736595 -6.495834 101 25002ft 459kts
29-Jun-21 11:23 63.711382 -6.213363 101 25002ft 459kts
29-Jun-21 11:24 63.685641 -5.931634 101 25002ft 459kts
29-Jun-21 11:25 63.659276 -5.649640 102 25002ft 459kts
29-Jun-21 11:26 63.632413 -5.368711 102 25002ft 459kts
29-Jun-21 11:27 63.605023 -5.088535 102 25002ft 459kts
29-Jun-21 11:28 63.577061 -4.808614 102 25002ft 459kts
29-Jun-21 11:29 63.548662 -4.530333 103 25544ft 452kts
29-Jun-21 11:30 63.519738 -4.252750 103 26546ft 465kts
29-Jun-21 11:31 63.489484 -3.968180 103 27549ft 472kts
29-Jun-21 11:32 63.458408 -3.681815 103 28547ft 478kts
29-Jun-21 11:33 63.426262 -3.391603 104 29549ft 484kts
29-Jun-21 11:34 63.393108 -3.098376 104 30550ft 491kts
29-Jun-21 11:35 63.358784 -2.800891 104 31001ft 501kts
29-Jun-21 11:36 63.323287 -2.499453 104 31002ft 503kts
29-Jun-21 11:37 63.287117 -2.198549 105 31002ft 503kts
29-Jun-21 11:38 63.250290 -1.898317 105 31002ft 503kts
29-Jun-21 11:39 63.212991 -1.600164 105 31002ft 503kts
29-Jun-21 11:40 63.174911 -1.301606 105 31002ft 503kts
29-Jun-21 11:41 63.136288 -1.004509 106 31002ft 503kts
29-Jun-21 11:42 63.096922 -0.707384 106 31002ft 503kts
29-Jun-21 11:43 63.056979 -0.411521 106 31002ft 503kts
29-Jun-21 11:44 63.016481 -0.117287 107 31002ft 503kts
29-Jun-21 11:45 62.981905 0.181010 102 31003ft 503kts
29-Jun-21 11:46 62.953039 0.482511 101 31002ft 503kts
29-Jun-21 11:47 62.924425 0.782993 101 31002ft 503kts
29-Jun-21 11:48 62.894969 1.083055 102 31002ft 503kts
29-Jun-21 11:49 62.864683 1.382088 102 31002ft 503kts
29-Jun-21 11:50 62.833696 1.679743 102 31002ft 503kts
29-Jun-21 11:51 62.801848 1.978169 103 31002ft 503kts
29-Jun-21 11:52 62.769460 2.274758 103 31002ft 503kts
29-Jun-21 11:54 62.736334 2.571550 103 31002ft 503kts
29-Jun-21 11:55 62.702651 2.867005 104 31002ft 503kts
29-Jun-21 11:56 62.668322 3.161972 104 31002ft 503kts
29-Jun-21 11:57 62.633324 3.456655 104 31002ft 503kts
29-Jun-21 11:58 62.597771 3.750128 104 31002ft 503kts
29-Jun-21 11:59 62.561588 4.043029 105 31002ft 503kts
29-Jun-21 12:00 62.524746 4.335587 105 31002ft 503kts
29-Jun-21 12:01 62.487295 4.627406 105 31002ft 503kts
29-Jun-21 12:02 62.449340 4.917688 105 31002ft 503kts
29-Jun-21 12:03 62.410689 5.207938 106 31002ft 503kts
29-Jun-21 12:04 62.371429 5.497479 106 31002ft 503kts
29-Jun-21 12:05 62.331676 5.785504 106 31002ft 503kts
29-Jun-21 12:06 62.291179 6.073815 106 31002ft 503kts
29-Jun-21 12:07 62.250236 6.360310 107 31002ft 503kts
29-Jun-21 12:08 62.208615 6.646634 107 31002ft 503kts
29-Jun-21 12:09 62.166337 6.932620 107 31002ft 503kts
29-Jun-21 12:10 62.123664 7.216533 107 31002ft 503kts
29-Jun-21 12:11 62.080225 7.500849 108 31002ft 503kts
29-Jun-21 12:12 62.036389 7.783155 108 31002ft 503kts
29-Jun-21 12:13 61.991824 8.065604 108 31002ft 503kts
29-Jun-21 12:13 61.954263 8.300253 108 31002ft 503kts
29-Jun-21 12:15 61.901051 8.627532 109 31002ft 503kts
29-Jun-21 12:15 61.862449 8.861327 109 31002ft 503kts
29-Jun-21 12:17 61.807979 9.186230 109 31002ft 503kts
29-Jun-21 12:18 61.760535 9.464657 109 31002ft 503kts
29-Jun-21 12:19 61.712712 9.741159 110 31002ft 503kts
29-Jun-21 12:19 61.672251 9.971973 110 31002ft 503kts
29-Jun-21 12:20 61.623303 10.247477 110 31002ft 503kts
29-Jun-21 12:21 61.573840 10.521893 110 31002ft 503kts
29-Jun-21 12:23 61.515377 10.841278 111 31002ft 503kts
29-Jun-21 12:23 61.473209 11.068412 111 31002ft 503kts
29-Jun-21 12:24 61.421968 11.340904 111 31002ft 503kts
29-Jun-21 12:25 61.370277 11.611991 111 31002ft 503kts
29-Jun-21 12:26 61.318071 11.882045 112 31002ft 503kts
29-Jun-21 12:27 61.265407 12.150745 112 31002ft 503kts
29-Jun-21 12:28 61.211988 12.419581 112 31002ft 503kts
29-Jun-21 12:29 61.159147 12.687974 107 30999ft 503kts
29-Jun-21 12:30 61.141745 12.974404 91 31004ft 503kts
29-Jun-21 12:31 61.141077 13.263334 89 31002ft 503kts
29-Jun-21 12:32 61.141220 13.553212 90 31002ft 503kts
29-Jun-21 12:33 61.139687 13.842805 90 31002ft 503kts
29-Jun-21 12:34 61.136619 14.131025 91 31002ft 503kts
29-Jun-21 12:35 61.132379 14.420390 91 31002ft 503kts
29-Jun-21 12:36 61.127245 14.709481 92 31002ft 503kts
29-Jun-21 12:37 61.121356 14.998740 92 31002ft 503kts
29-Jun-21 12:38 61.114798 15.287295 92 31002ft 503kts
29-Jun-21 12:39 61.107572 15.576589 93 31002ft 503kts
29-Jun-21 12:40 61.099725 15.865495 93 31002ft 503kts
29-Jun-21 12:41 61.091266 16.153898 93 31002ft 503kts
29-Jun-21 12:42 61.082208 16.441627 93 31002ft 503kts
29-Jun-21 12:43 61.072524 16.729562 94 31002ft 503kts
29-Jun-21 12:44 61.062206 17.017918 94 31002ft 503kts
29-Jun-21 12:45 61.051306 17.305205 94 31002ft 503kts
29-Jun-21 12:46 61.039748 17.593496 94 31002ft 503kts
29-Jun-21 12:47 61.027626 17.880342 95 31002ft 503kts
29-Jun-21 12:48 61.014853 18.167897 95 31002ft 503kts
29-Jun-21 12:49 61.001503 18.454506 95 31002ft 503kts
29-Jun-21 12:50 60.987531 18.741148 95 31002ft 503kts
29-Jun-21 12:51 60.972964 19.027302 96 31002ft 503kts
29-Jun-21 12:52 60.957768 19.313596 96 31002ft 503kts
29-Jun-21 12:53 60.941962 19.599655 96 31002ft 503kts
29-Jun-21 12:54 60.925579 19.884892 96 31002ft 503kts
29-Jun-21 12:55 60.908590 20.169879 97 31002ft 503kts
29-Jun-21 12:56 60.890976 20.454873 97 31002ft 503kts
29-Jun-21 12:57 60.872778 20.739230 97 31002ft 503kts
29-Jun-21 12:58 60.853955 21.023567 97 31002ft 503kts
29-Jun-21 12:59 60.834470 21.308347 98 31002ft 503kts
29-Jun-21 13:00 60.814489 21.591119 98 31002ft 503kts
29-Jun-21 13:01 60.793781 21.874920 98 31002ft 503kts
29-Jun-21 13:02 60.771508 22.157183 100 31003ft 503kts
29-Jun-21 13:03 60.743230 22.437038 102 31002ft 503kts
29-Jun-21 13:04 60.712663 22.716475 102 31002ft 503kts
29-Jun-21 13:05 60.681514 22.994226 102 31002ft 503kts
29-Jun-21 13:06 60.649882 23.271650 103 31002ft 503kts
29-Jun-21 13:07 60.617727 23.548904 103 31002ft 503kts
29-Jun-21 13:08 60.585000 23.826059 103 31002ft 503kts
29-Jun-21 13:09 60.551837 24.101723 103 31002ft 503kts
29-Jun-21 13:10 60.518110 24.376873 104 31002ft 503kts
29-Jun-21 13:11 60.483772 24.651854 104 31002ft 503kts
29-Jun-21 13:12 60.448888 24.926102 104 31002ft 503kts
29-Jun-21 13:13 60.413303 25.200821 104 31002ft 503kts
29-Jun-21 13:14 60.377386 25.473162 105 31002ft 503kts
29-Jun-21 13:15 60.340737 25.746191 105 31002ft 503kts
29-Jun-21 13:16 60.303525 26.018586 105 31002ft 503kts
29-Jun-21 13:17 60.265810 26.289917 105 31002ft 503kts
29-Jun-21 13:18 60.227584 26.560222 106 31002ft 503kts
29-Jun-21 13:19 60.188635 26.830789 106 31002ft 503kts
29-Jun-21 13:20 60.155141 27.103395 101 31003ft 503kts
29-Jun-21 13:21 60.127995 27.377934 100 31002ft 503kts
29-Jun-21 13:22 60.101056 27.653532 101 31002ft 503kts
29-Jun-21 13:23 60.073237 27.928326 101 31002ft 503kts
29-Jun-21 13:24 60.044576 28.201874 102 31002ft 503kts
29-Jun-21 13:25 60.015097 28.475436 102 31002ft 503kts
29-Jun-21 13:26 59.984945 28.748311 102 31002ft 503kts
29-Jun-21 13:27 59.953792 29.019839 103 31002ft 503kts
29-Jun-21 13:28 59.908566 29.280432 127 30999ft 502kts
29-Jun-21 13:29 59.799542 29.454851 147 31004ft 504kts
29-Jun-21 13:30 59.680186 29.598657 149 31002ft 503kts
29-Jun-21 13:31 59.559587 29.740221 149 31002ft 503kts
29-Jun-21 13:32 59.439687 29.881984 148 31002ft 503kts
29-Jun-21 13:33 59.320276 30.024818 148 31002ft 503kts
29-Jun-21 13:34 59.201613 30.168540 147 31002ft 503kts
29-Jun-21 13:35 59.082924 30.314172 147 31002ft 503kts
29-Jun-21 13:36 58.965440 30.460276 147 31002ft 503kts
29-Jun-21 13:37 58.848173 30.608154 146 31002ft 503kts
29-Jun-21 13:38 58.731533 30.757379 146 31002ft 503kts
29-Jun-21 13:39 58.615785 30.907695 145 31002ft 503kts
29-Jun-21 13:40 58.500470 31.059793 145 31002ft 503kts
29-Jun-21 13:41 58.386136 31.213048 144 31002ft 503kts
29-Jun-21 13:42 58.272137 31.368443 144 31002ft 503kts
29-Jun-21 13:43 58.159072 31.525286 143 31002ft 503kts
29-Jun-21 13:44 58.047011 31.683593 142 31002ft 503kts
29-Jun-21 13:45 57.935924 31.843535 142 31002ft 503kts
29-Jun-21 13:46 57.825855 32.005186 141 31002ft 503kts
29-Jun-21 13:47 57.716522 32.169127 140 31002ft 503kts
29-Jun-21 13:48 57.608098 32.335297 140 31002ft 503kts
29-Jun-21 13:49 57.501147 32.503010 139 31002ft 503kts
29-Jun-21 13:50 57.395437 32.672820 138 31002ft 503kts
29-Jun-21 13:51 57.290991 32.844920 137 31002ft 503kts
29-Jun-21 13:52 57.187542 33.019991 137 29845ft 494kts
29-Jun-21 13:53 57.090221 33.189502 136 27748ft 476kts
29-Jun-21 13:54 56.995974 33.358596 135 25651ft 470kts
29-Jun-21 13:55 56.904880 33.527103 134 23552ft 459kts
29-Jun-21 13:56 56.817951 33.693138 133 21452ft 444kts
29-Jun-21 13:57 56.735939 33.855101 132 19351ft 425kts
29-Jun-21 13:58 56.659236 34.011909 131 17244ft 403kts
29-Jun-21 13:59 56.588275 34.162207 130 15137ft 380kts
29-Jun-21 14:00 56.522781 34.306006 129 13032ft 360kts
29-Jun-21 14:01 56.461528 34.445482 127 10926ft 346kts
29-Jun-21 14:02 56.403948 34.581570 126 9098ft 328kts
29-Jun-21 14:03 56.354425 34.703211 125 8999ft 282kts
29-Jun-21 14:04 56.302870 34.834727 124 9008ft 361kts
29-Jun-21 14:05 56.246576 34.984258 123 9003ft 363kts
29-Jun-21 14:06 56.191907 35.137130 122 8938ft 366kts
29-Jun-21 14:07 56.139101 35.293656 120 7918ft 362kts
29-Jun-21 14:08 56.089997 35.449268 118 6919ft 356kts
29-Jun-21 14:09 56.044383 35.605107 116 6071ft 349kts
29-Jun-21 14:10 56.002679 35.760411 114 6003ft 348kts
29-Jun-21 14:11 55.964143 35.919046 112 6003ft 349kts
29-Jun-21 14:12 55.929274 36.081372 109 5551ft 352kts
29-Jun-21 14:13 55.899357 36.244663 106 5011ft 343kts
29-Jun-21 14:14 55.875063 36.409267 103 5003ft 344kts
29-Jun-21 14:15 55.862136 36.577838 90 5003ft 344kts
29-Jun-21 14:16 55.872703 36.746982 78 5003ft 344kts
29-Jun-21 14:17 55.895345 36.912823 75 5002ft 344kts
29-Jun-21 14:18 55.920618 37.077349 74 5002ft 344kts
29-Jun-21 14:19 55.921721 37.084531 74 5002ft 344kts
29-Jun-21 14:20 55.921721 37.084531 74 5002ft 344kts
29-Jun-21 14:21 55.921721 37.084531 74 5002ft 344kts
29-Jun-21 14:22 55.921721 37.084531 74 5002ft 344kts
29-Jun-21 14:23 55.921721 37.084531 74 5002ft 344kts
29-Jun-21 14:24 55.921721 37.084531 74 5002ft 344kts
29-Jun-21 14:25 55.921721 37.084531 74 5002ft 344kts
29-Jun-21 14:26 55.926022 37.112610 74 4828ft 345kts
29-Jun-21 14:27 55.949748 37.223323 65 3416ft 194kts
29-Jun-21 14:28 55.978102 37.307464 66 1385ft 177kts
29-Jun-21 14:29 55.986002 37.361505 72 644ft 24kts
29-Jun-21 14:30 55.986191 37.365476 100 644ft 0kts
29-Jun-21 14:31 55.986191 37.365478 100 644ft 0kts

Navigation Log

Ident Type
Flight plan parsing failed, navigation log unavailable